createdAt,value
2023-05-08T00:00:16.089Z,100407.63
2023-05-08T00:02:44.815Z,100403.22
2023-05-08T00:05:13.290Z,100410.13
2023-05-08T00:07:41.988Z,100405.63
2023-05-08T00:10:12.716Z,100399.38
2023-05-08T00:12:41.393Z,100405.31
2023-05-08T00:15:12.591Z,100407.00
2023-05-08T00:17:41.061Z,100407.84
2023-05-08T00:20:12.085Z,100406.91
2023-05-08T00:22:41.758Z,100402.53
2023-05-08T00:25:10.693Z,100399.84
2023-05-08T00:27:39.444Z,100405.09
2023-05-08T00:30:11.648Z,100406.81
2023-05-08T00:32:40.342Z,100405.03
2023-05-08T00:35:09.571Z,100406.81
2023-05-08T00:37:40.696Z,100400.69
2023-05-08T00:40:11.190Z,100397.22
2023-05-08T00:42:39.861Z,100406.81
2023-05-08T00:45:11.754Z,100405.03
2023-05-08T00:47:41.081Z,100414.63
2023-05-08T00:50:11.445Z,100409.34
2023-05-08T00:52:40.685Z,100411.97
2023-05-08T00:55:10.005Z,100399.72
2023-05-08T00:57:38.668Z,100411.97
2023-05-08T01:00:11.505Z,100401.50
2023-05-08T01:02:41.038Z,100404.13
2023-05-08T01:05:10.379Z,100412.81
2023-05-08T01:07:40.223Z,100404.06
2023-05-08T01:10:10.292Z,100405.75
2023-05-08T01:12:55.495Z,100398.72
2023-05-08T01:15:33.830Z,100406.59
2023-05-08T01:18:14.592Z,100402.19
2023-05-08T01:20:50.641Z,100408.22
2023-05-08T01:23:58.151Z,100410.66
2023-05-08T01:27:03.787Z,100412.28
2023-05-08T01:30:18.091Z,100407.81
2023-05-08T01:32:57.147Z,100421.81
2023-05-08T01:35:33.229Z,100410.47
2023-05-08T01:38:11.469Z,100413.13
2023-05-08T01:40:54.406Z,100417.47
2023-05-08T01:43:30.841Z,100418.38
2023-05-08T01:46:01.039Z,100411.34
2023-05-08T01:48:35.216Z,100417.53
2023-05-08T01:51:09.152Z,100407.94
2023-05-08T01:53:42.722Z,100414.06
2023-05-08T01:56:16.752Z,100419.25
2023-05-08T01:58:45.873Z,100419.22
2023-05-08T02:01:16.323Z,100412.25
2023-05-08T02:03:47.522Z,100417.44
2023-05-08T02:06:18.388Z,100415.69
2023-05-08T02:08:48.917Z,100420.91
2023-05-08T02:11:18.460Z,100427.00
2023-05-08T02:13:49.928Z,100420.00
2023-05-08T02:16:20.254Z,100420.00
2023-05-08T02:18:53.500Z,100427.00
2023-05-08T02:21:23.786Z,100423.50
2023-05-08T02:23:53.287Z,100419.91
2023-05-08T02:26:23.705Z,100419.91
2023-05-08T02:28:53.860Z,100425.97
2023-05-08T02:31:23.306Z,100425.09
2023-05-08T02:33:54.854Z,100431.16
2023-05-08T02:36:24.336Z,100428.47
2023-05-08T02:38:55.778Z,100429.25
2023-05-08T02:41:25.575Z,100435.25
2023-05-08T02:43:54.821Z,100430.81
2023-05-08T02:46:42.948Z,100433.28
2023-05-08T02:49:25.144Z,100438.47
2023-05-08T02:52:01.330Z,100443.72
2023-05-08T02:54:39.299Z,100437.56
2023-05-08T02:57:20.469Z,100432.34
2023-05-08T03:00:00.943Z,100432.34
2023-05-08T03:02:39.471Z,100430.56
2023-05-08T03:05:16.423Z,100429.69
2023-05-08T03:07:47.105Z,100430.56
2023-05-08T03:10:17.071Z,100434.91
2023-05-08T03:12:49.797Z,100427.06
2023-05-08T03:15:26.177Z,100435.81
2023-05-08T03:17:58.406Z,100429.69
2023-05-08T03:20:34.401Z,100436.59
2023-05-08T03:23:05.888Z,100432.19
2023-05-08T03:25:38.556Z,100435.69
2023-05-08T03:28:07.831Z,100429.53
2023-05-08T03:30:39.346Z,100426.91
2023-05-08T03:33:12.703Z,100430.38
2023-05-08T03:35:43.714Z,100424.25
2023-05-08T03:38:12.690Z,100426.84
2023-05-08T03:40:42.540Z,100428.59
2023-05-08T03:43:13.313Z,100423.34
2023-05-08T03:45:42.342Z,100428.53
2023-05-08T03:48:11.843Z,100423.28
2023-05-08T03:50:40.286Z,100424.13
2023-05-08T03:53:12.616Z,100418.91
2023-05-08T03:55:41.468Z,100421.47
2023-05-08T03:58:19.627Z,100418.84
2023-05-08T04:01:01.560Z,100409.25
2023-05-08T04:03:49.033Z,100410.09
2023-05-08T04:06:30.812Z,100410.94
2023-05-08T04:09:16.130Z,100415.28
2023-05-08T04:11:55.468Z,100420.50
2023-05-08T04:14:28.947Z,100424.84
2023-05-08T04:17:04.905Z,100418.72
2023-05-08T04:19:40.812Z,100435.25
2023-05-08T04:22:11.648Z,100432.56
2023-05-08T04:24:46.962Z,100432.50
2023-05-08T04:27:17.330Z,100429.88
2023-05-08T04:29:46.526Z,100431.53
2023-05-08T04:32:15.627Z,100431.50
2023-05-08T04:34:44.712Z,100436.72
2023-05-08T04:37:26.707Z,100434.94
2023-05-08T04:39:59.396Z,100428.81
2023-05-08T04:42:28.510Z,100437.50
2023-05-08T04:45:00.334Z,100434.91
2023-05-08T04:47:29.042Z,100438.41
2023-05-08T04:49:58.031Z,100433.16
2023-05-08T04:52:27.659Z,100435.81
2023-05-08T04:54:55.971Z,100437.59
2023-05-08T04:57:26.100Z,100441.97
2023-05-08T04:59:54.644Z,100443.75
2023-05-08T05:02:23.004Z,100440.25
2023-05-08T05:04:51.498Z,100450.72
2023-05-08T05:07:20.168Z,100467.22
2023-05-08T05:09:48.669Z,100469.75
2023-05-08T05:12:17.157Z,100474.06
2023-05-08T05:14:47.071Z,100471.41
2023-05-08T05:17:15.470Z,100474.81
2023-05-08T05:19:44.195Z,100469.69
2023-05-08T05:22:12.679Z,100475.81
2023-05-08T05:24:41.822Z,100471.47
2023-05-08T05:27:10.288Z,100475.03
2023-05-08T05:29:39.258Z,100468.06
2023-05-08T05:32:10.245Z,100473.34
2023-05-08T05:34:39.055Z,100473.38
2023-05-08T05:37:08.032Z,100478.66
2023-05-08T05:39:37.840Z,100476.88
2023-05-08T05:42:07.150Z,100475.97
2023-05-08T05:44:35.702Z,100480.31
2023-05-08T05:47:06.075Z,100476.75
2023-05-08T05:49:35.882Z,100495.91
2023-05-08T05:52:04.935Z,100485.44
2023-05-08T05:54:33.990Z,100496.75
2023-05-08T05:57:03.404Z,100493.22
2023-05-08T05:59:32.230Z,100496.69
2023-05-08T06:02:01.163Z,100498.47
2023-05-08T06:04:29.668Z,100495.91
2023-05-08T06:06:59.636Z,100498.66
2023-05-08T06:09:28.132Z,100499.59
2023-05-08T06:11:56.677Z,100492.75
2023-05-08T06:14:25.333Z,100487.63
2023-05-08T06:16:53.774Z,100492.13
2023-05-08T06:19:24.245Z,100486.97
2023-05-08T06:22:11.786Z,100494.91
2023-05-08T06:24:49.452Z,100481.03
2023-05-08T06:27:24.468Z,100483.72
2023-05-08T06:29:54.074Z,100493.34
2023-05-08T06:32:26.071Z,100495.19
2023-05-08T06:35:09.657Z,100496.09
2023-05-08T06:37:39.941Z,100487.38
2023-05-08T06:40:13.137Z,100491.91
2023-05-08T06:42:41.927Z,100488.44
2023-05-08T06:45:11.467Z,100489.31
2023-05-08T06:47:40.107Z,100494.66
2023-05-08T06:50:09.953Z,100492.94
2023-05-08T06:52:38.358Z,100497.31
2023-05-08T06:55:09.502Z,100492.09
2023-05-08T06:57:38.046Z,100494.75
2023-05-08T07:00:07.940Z,100495.69
2023-05-08T07:02:36.317Z,100493.97
2023-05-08T07:05:05.689Z,100487.91
2023-05-08T07:07:34.314Z,100489.72
2023-05-08T07:10:02.686Z,100483.59
2023-05-08T07:12:32.852Z,100491.47
2023-05-08T07:15:07.771Z,100486.22
2023-05-08T07:17:42.880Z,100489.78
2023-05-08T07:20:11.756Z,100486.31
2023-05-08T07:22:40.168Z,100489.88
2023-05-08T07:25:10.590Z,100489.94
2023-05-08T07:27:41.187Z,100476.00
2023-05-08T07:30:11.866Z,100482.13
2023-05-08T07:32:40.360Z,100483.06
2023-05-08T07:35:12.106Z,100483.16
2023-05-08T07:37:41.293Z,100484.03
2023-05-08T07:40:10.492Z,100486.72
2023-05-08T07:42:44.637Z,100488.50
2023-05-08T07:45:14.765Z,100505.13
2023-05-08T07:47:51.308Z,100495.53
2023-05-08T07:50:20.352Z,100498.16
2023-05-08T07:52:50.364Z,100500.88
2023-05-08T07:55:19.898Z,100504.41
2023-05-08T07:57:50.118Z,100514.88
2023-05-08T08:00:19.657Z,100515.75
2023-05-08T08:02:48.322Z,100508.78
2023-05-08T08:05:17.277Z,100514.88
2023-05-08T08:07:45.786Z,100516.66
2023-05-08T08:10:14.255Z,100515.75
2023-05-08T08:12:43.073Z,100518.44
2023-05-08T08:15:13.752Z,100523.66
2023-05-08T08:17:42.573Z,100525.44
2023-05-08T08:20:12.024Z,100521.09
2023-05-08T08:22:41.351Z,100528.13
2023-05-08T08:25:10.604Z,100525.50
2023-05-08T08:27:39.154Z,100522.88
2023-05-08T08:30:17.653Z,100522.03
2023-05-08T08:32:48.842Z,100530.78
2023-05-08T08:35:17.647Z,100522.03
2023-05-08T08:37:46.140Z,100517.75
2023-05-08T08:40:14.732Z,100532.69
2023-05-08T08:42:43.103Z,100538.00
2023-05-08T08:45:12.796Z,100527.53
2023-05-08T08:47:46.537Z,100521.41
2023-05-08T08:50:17.756Z,100524.03
2023-05-08T08:52:54.747Z,100532.78
2023-05-08T08:55:24.720Z,100532.78
2023-05-08T08:58:05.980Z,100528.41
2023-05-08T09:00:36.019Z,100530.06
2023-05-08T09:03:06.995Z,100527.44
2023-05-08T09:05:37.593Z,100534.47
2023-05-08T09:08:08.121Z,100523.97
2023-05-08T09:10:37.223Z,100527.47
2023-05-08T09:13:05.899Z,100531.88
2023-05-08T09:15:34.925Z,100532.81
2023-05-08T09:18:04.017Z,100536.38
2023-05-08T09:20:32.581Z,100525.09
2023-05-08T09:23:03.998Z,100532.06
2023-05-08T09:25:45.873Z,100532.13
2023-05-08T09:28:18.223Z,100531.28
2023-05-08T09:30:57.714Z,100524.31
2023-05-08T09:33:28.022Z,100529.53
2023-05-08T09:35:57.663Z,100535.69
2023-05-08T09:38:40.520Z,100536.63
2023-05-08T09:41:11.140Z,100532.25
2023-05-08T09:43:40.066Z,100530.59
2023-05-08T09:46:26.244Z,100540.22
2023-05-08T09:48:56.978Z,100537.66
2023-05-08T09:51:26.490Z,100543.00
2023-05-08T09:53:57.809Z,100540.38
2023-05-08T09:56:37.249Z,100543.88
2023-05-08T09:59:07.408Z,100541.31
2023-05-08T10:01:37.634Z,100534.34
2023-05-08T10:04:07.669Z,100531.66
2023-05-08T10:06:36.506Z,100533.50
2023-05-08T10:09:14.413Z,100542.25
2023-05-08T10:11:52.044Z,100540.53
2023-05-08T10:14:21.520Z,100549.31
2023-05-08T10:16:52.801Z,100542.34
2023-05-08T10:19:22.768Z,100544.13
2023-05-08T10:21:53.232Z,100550.31
2023-05-08T10:24:29.273Z,100541.56
2023-05-08T10:27:08.006Z,100543.31
2023-05-08T10:29:46.472Z,100541.59
2023-05-08T10:32:19.701Z,100541.59
2023-05-08T10:34:54.663Z,100541.59
2023-05-08T10:37:23.354Z,100544.22
2023-05-08T10:39:55.801Z,100546.91
2023-05-08T10:42:24.575Z,100538.09
2023-05-08T10:44:54.486Z,100542.44
2023-05-08T10:47:31.676Z,100540.72
2023-05-08T10:50:12.169Z,100540.69
2023-05-08T10:52:48.864Z,100532.00
2023-05-08T10:55:24.552Z,100534.63
2023-05-08T10:58:15.188Z,100532.00
2023-05-08T11:01:13.979Z,100529.38
2023-05-08T11:03:48.108Z,100527.66
2023-05-08T11:06:16.927Z,100528.53
2023-05-08T11:08:49.897Z,100521.59
2023-05-08T11:11:29.594Z,100523.38
2023-05-08T11:14:12.334Z,100522.56
2023-05-08T11:17:09.780Z,100515.63
2023-05-08T11:19:40.292Z,100517.38
2023-05-08T11:22:33.412Z,100520.00
2023-05-08T11:25:08.634Z,100508.72
2023-05-08T11:28:13.852Z,100511.38
2023-05-08T11:30:42.504Z,100511.38
2023-05-08T11:33:21.046Z,100496.56
2023-05-08T11:35:53.198Z,100507.13
2023-05-08T11:38:28.761Z,100507.25
2023-05-08T11:41:07.487Z,100504.66
2023-05-08T11:44:18.158Z,100501.19
2023-05-08T11:46:52.601Z,100503.03
2023-05-08T11:49:26.852Z,100497.84
2023-05-08T11:51:59.617Z,100509.28
2023-05-08T11:54:32.624Z,100501.47
2023-05-08T11:57:02.008Z,100498.91
2023-05-08T11:59:37.776Z,100505.13
2023-05-08T12:02:09.040Z,100506.91
2023-05-08T12:04:46.648Z,100509.59
2023-05-08T12:07:16.131Z,100498.25
2023-05-08T12:09:44.719Z,100502.69
2023-05-08T12:12:13.242Z,100505.31
2023-05-08T12:14:43.054Z,100491.34
2023-05-08T12:17:11.956Z,100488.78
2023-05-08T12:19:40.844Z,100487.06
2023-05-08T12:22:10.857Z,100489.75
2023-05-08T12:24:40.669Z,100489.78
2023-05-08T12:27:09.296Z,100493.34
2023-05-08T12:29:38.656Z,100497.78
2023-05-08T12:32:08.788Z,100496.94
2023-05-08T12:34:37.788Z,100497.88
2023-05-08T12:37:07.004Z,100493.53
2023-05-08T12:39:38.609Z,100495.34
2023-05-08T12:42:07.178Z,100495.38
2023-05-08T12:44:35.604Z,100484.91
2023-05-08T12:47:06.556Z,100491.91
2023-05-08T12:49:36.438Z,100493.69
2023-05-08T12:52:07.690Z,100494.59
2023-05-08T12:54:37.923Z,100485.00
2023-05-08T12:57:13.516Z,100488.50
2023-05-08T12:59:43.150Z,100478.88
2023-05-08T13:02:17.658Z,100479.84
2023-05-08T13:04:47.853Z,100476.34
2023-05-08T13:07:16.395Z,100478.16
2023-05-08T13:09:59.811Z,100474.66
2023-05-08T13:12:28.228Z,100473.81
2023-05-08T13:14:56.683Z,100482.66
2023-05-08T13:17:25.092Z,100475.63
2023-05-08T13:19:55.055Z,100479.19
2023-05-08T13:22:26.890Z,100472.22
2023-05-08T13:24:55.438Z,100467.88
2023-05-08T13:27:24.249Z,100466.19
2023-05-08T13:29:52.760Z,100471.47
2023-05-08T13:32:21.364Z,100473.28
2023-05-08T13:34:51.669Z,100461.91
2023-05-08T13:37:24.163Z,100455.81
2023-05-08T13:39:52.565Z,100457.59
2023-05-08T13:42:21.001Z,100455.00
2023-05-08T13:44:49.601Z,100444.56
2023-05-08T13:47:18.147Z,100452.47
2023-05-08T13:49:47.580Z,100448.97
2023-05-08T13:52:15.856Z,100446.34
2023-05-08T13:54:45.804Z,100439.34
2023-05-08T13:57:14.340Z,100444.66
2023-05-08T13:59:43.048Z,100449.00
2023-05-08T14:02:11.633Z,100439.34
2023-05-08T14:04:40.362Z,100437.66
2023-05-08T14:07:08.752Z,100438.50
2023-05-08T14:09:37.168Z,100427.13
2023-05-08T14:12:07.230Z,100425.41
2023-05-08T14:14:35.621Z,100430.69
2023-05-08T14:17:05.293Z,100421.94
2023-05-08T14:19:33.870Z,100426.34
2023-05-08T14:22:02.630Z,100428.09
2023-05-08T14:24:31.053Z,100428.09
2023-05-08T14:27:02.039Z,100429.00
2023-05-08T14:29:31.826Z,100425.53
2023-05-08T14:32:00.612Z,100416.75
2023-05-08T14:34:29.043Z,100428.16
2023-05-08T14:36:57.533Z,100419.41
2023-05-08T14:39:26.375Z,100423.78
2023-05-08T14:42:18.268Z,100423.81
2023-05-08T14:44:44.789Z,100419.44
2023-05-08T14:47:13.155Z,100426.47
2023-05-08T14:49:41.469Z,100418.59
2023-05-08T14:52:09.910Z,100422.16
2023-05-08T14:54:38.575Z,100416.03
2023-05-08T14:57:07.749Z,100409.94
2023-05-08T14:59:36.156Z,100416.13
2023-05-08T15:02:06.017Z,100406.50
2023-05-08T15:04:35.998Z,100407.41
2023-05-08T15:07:05.405Z,100407.41
2023-05-08T15:09:34.023Z,100405.66
2023-05-08T15:12:03.428Z,100405.66
2023-05-08T15:14:31.736Z,100404.78
2023-05-08T15:17:00.227Z,100409.19
2023-05-08T15:19:30.221Z,100401.31
2023-05-08T15:21:58.728Z,100413.56
2023-05-08T15:24:27.057Z,100412.69
2023-05-08T15:26:55.622Z,100406.50
2023-05-08T15:29:23.968Z,100403.00
2023-05-08T15:31:52.811Z,100401.25
2023-05-08T15:34:23.311Z,100399.47
2023-05-08T15:36:54.639Z,100405.66
2023-05-08T15:39:23.053Z,100401.28
2023-05-08T15:41:51.435Z,100403.91
2023-05-08T15:44:20.612Z,100394.28
2023-05-08T15:46:49.751Z,100403.94
2023-05-08T15:49:18.098Z,100405.72
2023-05-08T15:51:46.850Z,100407.44
2023-05-08T15:54:16.590Z,100411.00
2023-05-08T15:56:45.346Z,100403.03
2023-05-08T15:59:14.429Z,100393.41
2023-05-08T16:01:43.382Z,100390.81
2023-05-08T16:04:12.045Z,100387.31
2023-05-08T16:06:40.794Z,100396.09
2023-05-08T16:09:09.430Z,100392.63
2023-05-08T16:11:39.593Z,100389.13
2023-05-08T16:14:07.976Z,100394.38
2023-05-08T16:16:36.443Z,100389.16
2023-05-08T16:19:05.233Z,100384.75
2023-05-08T16:21:33.716Z,100386.53
2023-05-08T16:24:02.278Z,100376.03
2023-05-08T16:26:30.929Z,100371.66
2023-05-08T16:29:00.590Z,100370.81
2023-05-08T16:31:29.165Z,100369.06
2023-05-08T16:33:57.587Z,100366.47
2023-05-08T16:36:26.727Z,100363.84
2023-05-08T16:38:55.206Z,100365.63
2023-05-08T16:41:23.782Z,100362.13
2023-05-08T16:43:52.337Z,100363.91
2023-05-08T16:46:30.083Z,100360.38
2023-05-08T16:48:59.228Z,100357.75
2023-05-08T16:51:27.928Z,100349.88
2023-05-08T16:53:57.999Z,100349.00
2023-05-08T16:56:26.944Z,100351.66
2023-05-08T16:58:55.533Z,100348.16
2023-05-08T17:01:25.484Z,100344.66
2023-05-08T17:03:54.229Z,100342.91
2023-05-08T17:06:22.611Z,100351.69
2023-05-08T17:08:50.947Z,100346.44
2023-05-08T17:11:19.275Z,100348.16
2023-05-08T17:13:48.079Z,100352.56
2023-05-08T17:16:19.032Z,100349.06
2023-05-08T17:18:50.516Z,100344.66
2023-05-08T17:21:19.213Z,100348.13
2023-05-08T17:23:47.614Z,100353.38
2023-05-08T17:26:16.030Z,100352.44
2023-05-08T17:28:44.498Z,100363.81
2023-05-08T17:31:14.566Z,100363.78
2023-05-08T17:33:43.276Z,100350.59
2023-05-08T17:36:13.174Z,100359.38
2023-05-08T17:38:45.841Z,100361.97
2023-05-08T17:41:15.263Z,100370.72
2023-05-08T17:43:43.779Z,100361.91
2023-05-08T17:46:12.177Z,100369.84
2023-05-08T17:48:40.892Z,100359.28
2023-05-08T17:51:15.328Z,100370.72
2023-05-08T17:53:44.571Z,100358.41
2023-05-08T17:56:13.335Z,100354.00
2023-05-08T17:58:41.638Z,100349.59
2023-05-08T18:01:10.385Z,100356.56
2023-05-08T18:03:38.889Z,100347.84
2023-05-08T18:06:07.644Z,100354.84
2023-05-08T18:08:38.369Z,100346.91
2023-05-08T18:11:08.020Z,100342.50
2023-05-08T18:13:36.448Z,100360.88
2023-05-08T18:16:04.942Z,100360.00
2023-05-08T18:18:33.328Z,100361.78
2023-05-08T18:21:01.766Z,100361.69
2023-05-08T18:23:30.189Z,100361.69
2023-05-08T18:25:59.953Z,100369.53
2023-05-08T18:28:29.149Z,100366.88
2023-05-08T18:30:57.719Z,100365.16
2023-05-08T18:33:26.282Z,100375.59
2023-05-08T18:35:55.750Z,100380.84
2023-05-08T18:38:24.157Z,100369.41
2023-05-08T18:40:52.679Z,100376.41
2023-05-08T18:43:24.419Z,100386.03
2023-05-08T18:45:52.889Z,100378.94
2023-05-08T18:48:21.347Z,100387.69
2023-05-08T18:50:49.848Z,100380.63
2023-05-08T18:53:18.859Z,100381.44
2023-05-08T18:55:47.349Z,100374.38
2023-05-08T18:58:16.000Z,100380.53
2023-05-08T19:00:45.859Z,100383.09
2023-05-08T19:03:14.692Z,100383.06
2023-05-08T19:05:43.220Z,100384.78
2023-05-08T19:08:13.136Z,100383.00
2023-05-08T19:10:41.509Z,100387.38
2023-05-08T19:13:09.952Z,100376.81
2023-05-08T19:15:38.986Z,100381.13
2023-05-08T19:18:09.080Z,100376.75
2023-05-08T19:20:37.982Z,100376.69
2023-05-08T19:23:06.613Z,100378.38
2023-05-08T19:25:35.031Z,100381.91
2023-05-08T19:28:04.531Z,100374.88
2023-05-08T19:30:33.244Z,100373.09
2023-05-08T19:33:01.640Z,100367.81
2023-05-08T19:35:31.911Z,100376.59
2023-05-08T19:38:00.278Z,100373.06
2023-05-08T19:40:28.824Z,100370.41
2023-05-08T19:42:57.342Z,100373.06
2023-05-08T19:45:25.781Z,100373.94
2023-05-08T19:47:54.322Z,100381.81
2023-05-08T19:50:23.161Z,100380.91
2023-05-08T19:52:53.284Z,100377.41
2023-05-08T19:55:22.076Z,100359.81
2023-05-08T19:57:50.534Z,100358.91
2023-05-08T20:00:19.567Z,100365.91
2023-05-08T20:02:48.094Z,100359.69
2023-05-08T20:05:22.501Z,100360.59
2023-05-08T20:07:53.973Z,100359.69
2023-05-08T20:10:22.705Z,100352.72
2023-05-08T20:12:51.132Z,100355.22
2023-05-08T20:15:19.950Z,100354.34
2023-05-08T20:17:48.374Z,100360.44
2023-05-08T20:20:16.976Z,100354.28
2023-05-08T20:22:45.628Z,100347.25
2023-05-08T20:25:15.745Z,100349.88
2023-05-08T20:27:44.161Z,100347.19
2023-05-08T20:30:13.296Z,100355.06
2023-05-08T20:32:41.857Z,100353.31
2023-05-08T20:35:10.842Z,100356.81
2023-05-08T20:37:45.123Z,100355.91
2023-05-08T20:40:16.213Z,100354.19
2023-05-08T20:42:44.810Z,100355.88
2023-05-08T20:45:13.434Z,100347.97
2023-05-08T20:47:42.806Z,100358.47
2023-05-08T20:50:11.939Z,100349.69
2023-05-08T20:52:42.378Z,100350.59
2023-05-08T20:55:11.514Z,100350.56
2023-05-08T20:57:41.336Z,100341.78
2023-05-08T21:00:11.209Z,100344.38
2023-05-08T21:02:41.327Z,100342.59
2023-05-08T21:05:11.481Z,100338.22
2023-05-08T21:07:42.020Z,100342.56
2023-05-08T21:10:11.299Z,100334.63
2023-05-08T21:12:41.227Z,100337.22
2023-05-08T21:15:10.507Z,100335.44
2023-05-08T21:17:38.947Z,100334.53
2023-05-08T21:20:09.713Z,100326.66
2023-05-08T21:22:38.143Z,100323.13
2023-05-08T21:25:16.262Z,100326.59
2023-05-08T21:27:46.283Z,100322.19
2023-05-08T21:30:16.542Z,100323.06
2023-05-08T21:32:46.181Z,100323.03
2023-05-08T21:35:15.787Z,100321.25
2023-05-08T21:37:44.890Z,100312.47
2023-05-08T21:40:13.959Z,100316.81
2023-05-08T21:42:42.769Z,100318.53
2023-05-08T21:45:13.640Z,100311.50
2023-05-08T21:47:42.780Z,100316.75
2023-05-08T21:50:12.166Z,100310.59
2023-05-08T21:52:40.521Z,100303.56
2023-05-08T21:55:10.475Z,100299.16
2023-05-08T21:57:39.077Z,100292.97
2023-05-08T22:00:10.295Z,100299.97
2023-05-08T22:02:49.819Z,100293.84
2023-05-08T22:05:18.209Z,100298.16
2023-05-08T22:07:46.595Z,100303.38
2023-05-08T22:10:15.105Z,100295.50
2023-05-08T22:12:43.569Z,100296.31
2023-05-08T22:15:25.657Z,100299.78
2023-05-08T22:17:59.461Z,100289.28
2023-05-08T22:20:28.290Z,100293.66
2023-05-08T22:22:57.296Z,100297.97
2023-05-08T22:25:26.865Z,100297.97
2023-05-08T22:27:55.407Z,100287.44
2023-05-08T22:30:23.881Z,100290.06
2023-05-08T22:32:56.248Z,100279.53
2023-05-08T22:35:28.298Z,100274.25
2023-05-08T22:37:58.320Z,100275.09
2023-05-08T22:40:27.438Z,100273.31
2023-05-08T22:42:58.811Z,100282.00
2023-05-08T22:45:28.072Z,100282.84
2023-05-08T22:47:57.164Z,100278.47
2023-05-08T22:50:27.116Z,100269.69
2023-05-08T22:52:55.995Z,100259.13
2023-05-08T22:55:24.692Z,100263.53
2023-05-08T22:57:53.122Z,100258.25
2023-05-08T23:00:22.646Z,100266.03
2023-05-08T23:02:51.460Z,100259.00
2023-05-08T23:05:20.112Z,100262.53
2023-05-08T23:07:49.839Z,100253.72
2023-05-08T23:10:18.513Z,100254.63
2023-05-08T23:12:47.107Z,100251.97
2023-05-08T23:15:16.146Z,100245.81
2023-05-08T23:17:44.785Z,100243.13
2023-05-08T23:20:13.885Z,100229.97
2023-05-08T23:22:42.297Z,100230.81
2023-05-08T23:25:12.871Z,100239.53
2023-05-08T23:27:42.157Z,100235.16
2023-05-08T23:30:13.085Z,100229.00
2023-05-08T23:32:41.684Z,100226.41
2023-05-08T23:35:10.871Z,100218.50
2023-05-08T23:37:39.435Z,100215.91
2023-05-08T23:40:10.195Z,100218.53
2023-05-08T23:42:40.707Z,100220.34
2023-05-08T23:45:11.008Z,100212.47
2023-05-08T23:47:39.424Z,100212.44
2023-05-08T23:50:09.041Z,100204.63
2023-05-08T23:52:37.418Z,100209.81
2023-05-08T23:55:07.057Z,100200.16
2023-05-08T23:57:35.643Z,100201.03
